PrinceSS Dina — 9LU2153 — position and weather

sailwx.info

Track history (hours):
 
Tides and Currents Weather Stations Pressure Air Temp Water Temp Dewpoint Dewpoint Depression Visibility Wind Speed Wind Dir Waves Ship Positions

PrinceSS Dina

Last reported at 2017-Aug-27 23:36 UTC. Time now 2017-Sep-20 00:28 UTC.
Position N 31°36' E 031°45'.
Warning: this ship's position is 23 days out of date.

Length 106 m; draft 3.6 m.

Type: Cargo ship. MMSI: 667001350.

Date/timePositionNaut miles runAvg speedWind from/ knotsBaromVisibWave heightAir tempDewpointWater temp
2017-Aug-27 23:36N 31°36' E 031°45'0 0.1
2017-Aug-27 23:18N 31°36' E 031°45'0 0.0
2017-Aug-27 15:36N 31°36' E 031°45'0 0.1
2017-Aug-27 15:29N 31°36' E 031°45'0 0.0
2017-Aug-27 01:14N 31°36' E 031°45'6 2.3
2017-Aug-26 22:40N 31°40' E 031°50'1 8.9
2017-Aug-26 22:30N 31°41' E 031°51'5 9.1
2017-Aug-26 22:00N 31°43' E 031°56'5 9.4
2017-Aug-26 21:30N 31°47' E 031°60'5 9.6
2017-Aug-26 21:00N 31°51' E 032°02'5 9.6
2017-Aug-26 20:30N 31°55' E 032°05'9 9.6
2017-Aug-26 19:33N 32°03' E 032°11'1 9.7
2017-Aug-26 19:27N 32°04' E 032°11'6 9.6
2017-Aug-26 18:47N 32°09' E 032°15'4 9.7
2017-Aug-26 18:24N 32°12' E 032°18'4 9.7
2017-Aug-26 18:00N 32°16' E 032°20'7 9.7
2017-Aug-26 17:14N 32°22' E 032°25'4 9.7
2017-Aug-26 16:46N 32°26' E 032°28'5 9.5
2017-Aug-26 16:18N 32°29' E 032°31'3 9.3
2017-Aug-26 16:00N 32°31' E 032°33'5 9.0
2017-Aug-26 15:30N 32°35' E 032°37'4 8.8
2017-Aug-26 15:01N 32°37' E 032°41'11 8.7
2017-Aug-26 13:48N 32°44' E 032°51'14 8.9
2017-Aug-26 12:16N 32°53' E 033°03'2 9.0
2017-Aug-26 12:00N 32°54' E 033°05'6 9.1
2017-Aug-26 11:21N 32°58' E 033°11'3 9.2
2017-Aug-26 11:00N 33°00' E 033°14'5 9.1
2017-Aug-26 10:30N 33°03' E 033°18'5 9.4
2017-Aug-26 10:00N 33°06' E 033°22'5 9.5
2017-Aug-26 09:27N 33°10' E 033°26'6 9.8
2017-Aug-26 08:52N 33°14' E 033°31'410.1
2017-Aug-26 08:26N 33°17' E 033°35'  
Track history (hours):
 
Tides and Currents Weather Stations Pressure Air Temp Water Temp Dewpoint Dewpoint Depression Visibility Wind Speed Wind Dir Waves Ship Positions

PrinceSS Dina

Last reported at 2017-Aug-27 23:36 UTC. Time now 2017-Sep-20 00:28 UTC.
Position N 31°36' E 031°45'.
Warning: this ship's position is 23 days out of date.

Length 106 m; draft 3.6 m.

Type: Cargo ship. MMSI: 667001350.

Date/timePositionNaut miles runAvg speedWind from/ knotsBaromVisibWave heightAir tempDewpointWater temp
2017-Aug-27 23:36N 31°36' E 031°45'0 0.1
2017-Aug-27 23:18N 31°36' E 031°45'0 0.0
2017-Aug-27 15:36N 31°36' E 031°45'0 0.1
2017-Aug-27 15:29N 31°36' E 031°45'0 0.0
2017-Aug-27 01:14N 31°36' E 031°45'6 2.3
2017-Aug-26 22:40N 31°40' E 031°50'1 8.9
2017-Aug-26 22:30N 31°41' E 031°51'5 9.1
2017-Aug-26 22:00N 31°43' E 031°56'5 9.4
2017-Aug-26 21:30N 31°47' E 031°60'5 9.6
2017-Aug-26 21:00N 31°51' E 032°02'5 9.6
2017-Aug-26 20:30N 31°55' E 032°05'9 9.6
2017-Aug-26 19:33N 32°03' E 032°11'1 9.7
2017-Aug-26 19:27N 32°04' E 032°11'6 9.6
2017-Aug-26 18:47N 32°09' E 032°15'4 9.7
2017-Aug-26 18:24N 32°12' E 032°18'4 9.7
2017-Aug-26 18:00N 32°16' E 032°20'7 9.7
2017-Aug-26 17:14N 32°22' E 032°25'4 9.7
2017-Aug-26 16:46N 32°26' E 032°28'5 9.5
2017-Aug-26 16:18N 32°29' E 032°31'3 9.3
2017-Aug-26 16:00N 32°31' E 032°33'5 9.0
2017-Aug-26 15:30N 32°35' E 032°37'4 8.8
2017-Aug-26 15:01N 32°37' E 032°41'11 8.7
2017-Aug-26 13:48N 32°44' E 032°51'14 8.9
2017-Aug-26 12:16N 32°53' E 033°03'2 9.0
2017-Aug-26 12:00N 32°54' E 033°05'6 9.1
2017-Aug-26 11:21N 32°58' E 033°11'3 9.2
2017-Aug-26 11:00N 33°00' E 033°14'5 9.1
2017-Aug-26 10:30N 33°03' E 033°18'5 9.4
2017-Aug-26 10:00N 33°06' E 033°22'5 9.5
2017-Aug-26 09:27N 33°10' E 033°26'6 9.8
2017-Aug-26 08:52N 33°14' E 033°31'410.1
2017-Aug-26 08:26N 33°17' E 033°35'  

Dump ship's entire track history